Terminal Aerodrome Forecast
Issued by NWS Green Bay, WI

Home | Current Version | Previous Version | Text Only | Print | Product List | Glossary On
Versions: 1 2 3 4 5 6 7 8 9 10 11 12 13 14 15 16 17 18 19 20 21 22 23 24 25 26 27 28 29 30 31 32 33 34 35 36 37
000
FTUS43 KGRB 291533 AAB
TAFGRB
TAF AMD
KGRB 291533Z 2916/3012 20008KT P6SM VCSH SCT035 BKN100
      TEMPO 2923/3003 3SM TSRA BKN025CB
     FM300300 VRB03KT 5SM -SHRA BR BKN015 OVC035
     FM300600 36005KT 3SM SHRA BR OVC009
     FM301000 04012G22KT 6SM -SHRA SCT009 OVC020=

USA.gov is the U.S. government's official web portal to all federal, state and local government web resources and services.